sensor_id;sensor_type;location;lat;lon;timestamp;temperature;humidity
3980;DHT22;2004;52.452;13.120;2023-09-30T00:02:20;17.20;99.90
3980;DHT22;2004;52.452;13.120;2023-09-30T00:10:11;17.00;99.90
3980;DHT22;2004;52.452;13.120;2023-09-30T00:18:01;16.90;99.90
3980;DHT22;2004;52.452;13.120;2023-09-30T00:25:52;16.70;99.90
3980;DHT22;2004;52.452;13.120;2023-09-30T00:33:42;16.60;99.90
3980;DHT22;2004;52.452;13.120;2023-09-30T00:41:33;16.40;99.90
3980;DHT22;2004;52.452;13.120;2023-09-30T00:49:25;16.30;99.90
3980;DHT22;2004;52.452;13.120;2023-09-30T00:57:17;16.10;99.90
3980;DHT22;2004;52.452;13.120;2023-09-30T01:05:10;16.00;99.90
3980;DHT22;2004;52.452;13.120;2023-09-30T01:13:01;15.90;99.90
3980;DHT22;2004;52.452;13.120;2023-09-30T01:20:52;15.80;99.90
3980;DHT22;2004;52.452;13.120;2023-09-30T01:28:43;15.70;99.90
3980;DHT22;2004;52.452;13.120;2023-09-30T01:36:34;15.60;99.90
3980;DHT22;2004;52.452;13.120;2023-09-30T01:44:24;15.50;99.90
3980;DHT22;2004;52.452;13.120;2023-09-30T01:52:16;15.30;99.90
3980;DHT22;2004;52.452;13.120;2023-09-30T02:00:06;15.20;99.90
3980;DHT22;2004;52.452;13.120;2023-09-30T02:08:00;15.00;99.90
3980;DHT22;2004;52.452;13.120;2023-09-30T02:15:56;15.00;99.90
3980;DHT22;2004;52.452;13.120;2023-09-30T02:23:47;14.80;99.90
3980;DHT22;2004;52.452;13.120;2023-09-30T02:31:38;14.70;99.90
3980;DHT22;2004;52.452;13.120;2023-09-30T02:39:28;14.60;99.90
3980;DHT22;2004;52.452;13.120;2023-09-30T02:47:19;14.50;99.90
3980;DHT22;2004;52.452;13.120;2023-09-30T02:55:10;14.40;99.90
3980;DHT22;2004;52.452;13.120;2023-09-30T03:03:02;14.30;99.90
3980;DHT22;2004;52.452;13.120;2023-09-30T03:10:52;14.30;99.90
3980;DHT22;2004;52.452;13.120;2023-09-30T03:18:43;14.20;99.90
3980;DHT22;2004;52.452;13.120;2023-09-30T03:26:34;14.10;99.90
3980;DHT22;2004;52.452;13.120;2023-09-30T03:34:25;14.10;99.90
3980;DHT22;2004;52.452;13.120;2023-09-30T03:42:16;14.00;99.90
3980;DHT22;2004;52.452;13.120;2023-09-30T03:50:07;14.00;99.90
3980;DHT22;2004;52.452;13.120;2023-09-30T03:58:04;13.90;99.90
3980;DHT22;2004;52.452;13.120;2023-09-30T04:05:55;13.80;99.90
3980;DHT22;2004;52.452;13.120;2023-09-30T04:13:46;13.80;99.90
3980;DHT22;2004;52.452;13.120;2023-09-30T04:21:37;13.70;99.90
3980;DHT22;2004;52.452;13.120;2023-09-30T04:29:29;13.70;99.90
3980;DHT22;2004;52.452;13.120;2023-09-30T04:37:19;13.60;99.90
3980;DHT22;2004;52.452;13.120;2023-09-30T04:45:11;13.60;99.90
3980;DHT22;2004;52.452;13.120;2023-09-30T04:53:01;13.60;99.90
3980;DHT22;2004;52.452;13.120;2023-09-30T05:00:52;13.50;99.90
3980;DHT22;2004;52.452;13.120;2023-09-30T05:08:43;13.50;99.90
3980;DHT22;2004;52.452;13.120;2023-09-30T05:16:33;13.50;99.90
3980;DHT22;2004;52.452;13.120;2023-09-30T05:24:24;13.50;99.90
3980;DHT22;2004;52.452;13.120;2023-09-30T05:32:14;13.40;99.90
3980;DHT22;2004;52.452;13.120;2023-09-30T05:40:05;13.40;99.90
3980;DHT22;2004;52.452;13.120;2023-09-30T05:48:06;13.40;99.90
3980;DHT22;2004;52.452;13.120;2023-09-30T05:55:57;13.40;99.90
3980;DHT22;2004;52.452;13.120;2023-09-30T06:03:47;13.50;99.90
3980;DHT22;2004;52.452;13.120;2023-09-30T06:11:38;13.50;99.90
3980;DHT22;2004;52.452;13.120;2023-09-30T06:19:29;13.60;99.90
3980;DHT22;2004;52.452;13.120;2023-09-30T06:27:20;13.60;99.90
3980;DHT22;2004;52.452;13.120;2023-09-30T06:35:11;13.60;99.90
3980;DHT22;2004;52.452;13.120;2023-09-30T06:43:02;13.60;99.90
3980;DHT22;2004;52.452;13.120;2023-09-30T06:50:52;13.60;99.90
3980;DHT22;2004;52.452;13.120;2023-09-30T06:58:43;13.70;99.90
3980;DHT22;2004;52.452;13.120;2023-09-30T07:06:33;13.80;99.90
3980;DHT22;2004;52.452;13.120;2023-09-30T07:14:24;13.80;99.90
3980;DHT22;2004;52.452;13.120;2023-09-30T07:22:15;13.90;99.90
3980;DHT22;2004;52.452;13.120;2023-09-30T07:30:06;14.00;99.90
3980;DHT22;2004;52.452;13.120;2023-09-30T07:37:57;14.10;99.90
3980;DHT22;2004;52.452;13.120;2023-09-30T07:45:48;14.20;99.90
3980;DHT22;2004;52.452;13.120;2023-09-30T07:53:39;14.20;99.90
3980;DHT22;2004;52.452;13.120;2023-09-30T08:01:33;14.20;99.90
3980;DHT22;2004;52.452;13.120;2023-09-30T08:09:24;14.30;99.90
3980;DHT22;2004;52.452;13.120;2023-09-30T08:17:15;14.50;99.90
3980;DHT22;2004;52.452;13.120;2023-09-30T08:25:06;14.70;99.90
3980;DHT22;2004;52.452;13.120;2023-09-30T08:32:57;14.90;99.90
3980;DHT22;2004;52.452;13.120;2023-09-30T08:40:49;14.90;99.90
3980;DHT22;2004;52.452;13.120;2023-09-30T08:48:40;15.00;99.90
3980;DHT22;2004;52.452;13.120;2023-09-30T08:56:31;15.00;99.90
3980;DHT22;2004;52.452;13.120;2023-09-30T09:04:25;15.10;99.90
3980;DHT22;2004;52.452;13.120;2023-09-30T09:12:19;15.30;99.90
3980;DHT22;2004;52.452;13.120;2023-09-30T09:20:22;15.50;99.90
3980;DHT22;2004;52.452;13.120;2023-09-30T09:28:15;15.80;99.90
3980;DHT22;2004;52.452;13.120;2023-09-30T09:36:05;16.10;99.90
3980;DHT22;2004;52.452;13.120;2023-09-30T09:43:59;16.30;99.90
3980;DHT22;2004;52.452;13.120;2023-09-30T09:51:50;16.50;99.90
3980;DHT22;2004;52.452;13.120;2023-09-30T09:59:43;16.60;99.90
3980;DHT22;2004;52.452;13.120;2023-09-30T10:07:39;16.70;99.90
3980;DHT22;2004;52.452;13.120;2023-09-30T10:23:26;17.00;99.90
3980;DHT22;2004;52.452;13.120;2023-09-30T10:31:26;17.20;99.90
3980;DHT22;2004;52.452;13.120;2023-09-30T10:39:53;17.30;99.90
3980;DHT22;2004;52.452;13.120;2023-09-30T10:47:44;17.60;99.90
3980;DHT22;2004;52.452;13.120;2023-09-30T10:55:35;17.60;99.90
3980;DHT22;2004;52.452;13.120;2023-09-30T11:03:26;17.70;99.90
3980;DHT22;2004;52.452;13.120;2023-09-30T11:11:16;17.80;99.90
3980;DHT22;2004;52.452;13.120;2023-09-30T11:19:07;17.90;99.90
3980;DHT22;2004;52.452;13.120;2023-09-30T11:26:59;17.80;99.90
3980;DHT22;2004;52.452;13.120;2023-09-30T11:34:49;17.90;99.90
3980;DHT22;2004;52.452;13.120;2023-09-30T11:42:40;18.00;99.90
3980;DHT22;2004;52.452;13.120;2023-09-30T11:50:46;18.00;99.90
3980;DHT22;2004;52.452;13.120;2023-09-30T11:58:36;18.10;99.90
3980;DHT22;2004;52.452;13.120;2023-09-30T12:06:27;18.30;99.90
3980;DHT22;2004;52.452;13.120;2023-09-30T12:14:17;18.50;99.90
3980;DHT22;2004;52.452;13.120;2023-09-30T12:22:08;18.60;99.90
3980;DHT22;2004;52.452;13.120;2023-09-30T12:30:00;18.60;99.90
3980;DHT22;2004;52.452;13.120;2023-09-30T12:37:50;18.70;99.90
3980;DHT22;2004;52.452;13.120;2023-09-30T12:45:41;18.70;99.90
3980;DHT22;2004;52.452;13.120;2023-09-30T12:53:32;18.80;99.90
3980;DHT22;2004;52.452;13.120;2023-09-30T13:01:23;18.80;99.90
3980;DHT22;2004;52.452;13.120;2023-09-30T13:09:14;18.90;99.90
3980;DHT22;2004;52.452;13.120;2023-09-30T13:17:04;18.80;99.90
3980;DHT22;2004;52.452;13.120;2023-09-30T13:24:55;18.80;99.90
3980;DHT22;2004;52.452;13.120;2023-09-30T13:32:45;18.90;99.90
3980;DHT22;2004;52.452;13.120;2023-09-30T13:40:36;19.10;99.90
3980;DHT22;2004;52.452;13.120;2023-09-30T13:48:27;19.10;99.90
3980;DHT22;2004;52.452;13.120;2023-09-30T13:56:17;19.10;99.30
3980;DHT22;2004;52.452;13.120;2023-09-30T14:04:08;19.10;99.80
3980;DHT22;2004;52.452;13.120;2023-09-30T14:11:59;19.10;99.50
3980;DHT22;2004;52.452;13.120;2023-09-30T14:19:49;19.00;97.00
3980;DHT22;2004;52.452;13.120;2023-09-30T14:27:40;18.90;99.50
3980;DHT22;2004;52.452;13.120;2023-09-30T14:35:33;18.90;98.70
3980;DHT22;2004;52.452;13.120;2023-09-30T14:43:24;18.90;99.50
3980;DHT22;2004;52.452;13.120;2023-09-30T14:51:15;18.90;99.90
3980;DHT22;2004;52.452;13.120;2023-09-30T14:59:07;18.90;99.90
3980;DHT22;2004;52.452;13.120;2023-09-30T15:06:57;18.80;99.90
3980;DHT22;2004;52.452;13.120;2023-09-30T15:14:48;18.80;99.90
3980;DHT22;2004;52.452;13.120;2023-09-30T15:22:38;18.70;99.60
3980;DHT22;2004;52.452;13.120;2023-09-30T15:30:29;18.60;99.90
3980;DHT22;2004;52.452;13.120;2023-09-30T15:38:19;18.50;99.90
3980;DHT22;2004;52.452;13.120;2023-09-30T15:46:10;18.40;99.90
3980;DHT22;2004;52.452;13.120;2023-09-30T15:54:01;18.30;99.90
3980;DHT22;2004;52.452;13.120;2023-09-30T16:01:51;18.10;99.90
3980;DHT22;2004;52.452;13.120;2023-09-30T16:09:42;18.00;99.90
3980;DHT22;2004;52.452;13.120;2023-09-30T16:17:33;17.90;99.90
3980;DHT22;2004;52.452;13.120;2023-09-30T16:25:23;17.80;99.90
3980;DHT22;2004;52.452;13.120;2023-09-30T16:33:14;17.60;99.90
3980;DHT22;2004;52.452;13.120;2023-09-30T16:41:04;17.50;99.90
3980;DHT22;2004;52.452;13.120;2023-09-30T16:48:55;17.30;99.90
3980;DHT22;2004;52.452;13.120;2023-09-30T16:56:45;17.00;99.90
3980;DHT22;2004;52.452;13.120;2023-09-30T17:04:36;16.80;99.90
3980;DHT22;2004;52.452;13.120;2023-09-30T17:12:26;16.60;99.90
3980;DHT22;2004;52.452;13.120;2023-09-30T17:20:17;16.40;99.90
3980;DHT22;2004;52.452;13.120;2023-09-30T17:28:08;16.20;99.90
3980;DHT22;2004;52.452;13.120;2023-09-30T17:35:59;16.00;99.90
3980;DHT22;2004;52.452;13.120;2023-09-30T17:43:50;15.80;99.90
3980;DHT22;2004;52.452;13.120;2023-09-30T17:51:41;15.70;99.90
3980;DHT22;2004;52.452;13.120;2023-09-30T17:59:36;15.50;99.90
3980;DHT22;2004;52.452;13.120;2023-09-30T18:07:27;15.40;99.90
3980;DHT22;2004;52.452;13.120;2023-09-30T18:15:17;15.30;99.90
3980;DHT22;2004;52.452;13.120;2023-09-30T18:23:08;15.20;99.90
3980;DHT22;2004;52.452;13.120;2023-09-30T18:30:58;15.10;99.90
3980;DHT22;2004;52.452;13.120;2023-09-30T18:38:49;15.00;99.90
3980;DHT22;2004;52.452;13.120;2023-09-30T18:46:39;15.00;99.90
3980;DHT22;2004;52.452;13.120;2023-09-30T18:54:30;14.90;99.90
3980;DHT22;2004;52.452;13.120;2023-09-30T19:02:21;14.80;99.90
3980;DHT22;2004;52.452;13.120;2023-09-30T19:10:12;14.60;99.90
3980;DHT22;2004;52.452;13.120;2023-09-30T19:18:02;14.50;99.90
3980;DHT22;2004;52.452;13.120;2023-09-30T19:25:53;14.40;99.90
3980;DHT22;2004;52.452;13.120;2023-09-30T19:33:44;14.40;99.90
3980;DHT22;2004;52.452;13.120;2023-09-30T19:41:36;14.30;99.90
3980;DHT22;2004;52.452;13.120;2023-09-30T19:49:30;14.20;99.90
3980;DHT22;2004;52.452;13.120;2023-09-30T19:57:20;14.00;99.90
3980;DHT22;2004;52.452;13.120;2023-09-30T20:05:11;13.90;99.90
3980;DHT22;2004;52.452;13.120;2023-09-30T20:13:02;13.80;99.90
3980;DHT22;2004;52.452;13.120;2023-09-30T20:20:58;13.70;99.90
3980;DHT22;2004;52.452;13.120;2023-09-30T20:28:49;13.60;99.90
3980;DHT22;2004;52.452;13.120;2023-09-30T20:36:39;13.50;99.90
3980;DHT22;2004;52.452;13.120;2023-09-30T20:44:30;13.50;99.90
3980;DHT22;2004;52.452;13.120;2023-09-30T20:52:21;13.50;99.90
3980;DHT22;2004;52.452;13.120;2023-09-30T21:00:12;13.40;99.90
3980;DHT22;2004;52.452;13.120;2023-09-30T21:08:06;13.40;99.90
3980;DHT22;2004;52.452;13.120;2023-09-30T21:15:57;13.30;99.90
3980;DHT22;2004;52.452;13.120;2023-09-30T21:23:48;13.30;99.90
3980;DHT22;2004;52.452;13.120;2023-09-30T21:31:38;13.20;99.90
3980;DHT22;2004;52.452;13.120;2023-09-30T21:39:30;13.20;99.90
3980;DHT22;2004;52.452;13.120;2023-09-30T21:47:21;13.20;99.90
3980;DHT22;2004;52.452;13.120;2023-09-30T21:55:11;13.10;99.90
3980;DHT22;2004;52.452;13.120;2023-09-30T22:03:02;13.10;99.90
3980;DHT22;2004;52.452;13.120;2023-09-30T22:10:55;13.10;99.90
3980;DHT22;2004;52.452;13.120;2023-09-30T22:18:45;13.10;99.90
3980;DHT22;2004;52.452;13.120;2023-09-30T22:26:36;13.10;99.90
3980;DHT22;2004;52.452;13.120;2023-09-30T22:34:27;13.10;99.90
3980;DHT22;2004;52.452;13.120;2023-09-30T22:42:17;13.10;99.90
3980;DHT22;2004;52.452;13.120;2023-09-30T22:50:08;13.10;99.90
3980;DHT22;2004;52.452;13.120;2023-09-30T22:58:00;13.20;99.90
3980;DHT22;2004;52.452;13.120;2023-09-30T23:05:51;13.10;99.90
3980;DHT22;2004;52.452;13.120;2023-09-30T23:13:41;13.20;99.90
3980;DHT22;2004;52.452;13.120;2023-09-30T23:21:32;13.20;99.90
3980;DHT22;2004;52.452;13.120;2023-09-30T23:29:23;13.20;99.90
3980;DHT22;2004;52.452;13.120;2023-09-30T23:37:14;13.20;99.90
3980;DHT22;2004;52.452;13.120;2023-09-30T23:45:06;13.30;99.90
3980;DHT22;2004;52.452;13.120;2023-09-30T23:53:03;13.30;99.90
